Time;durP1;ratioP1;P1;durP2;ratioP2;P2;SDS_P1;SDS_P2;PMS_P1;PMS_P2;Temp;Humidity;BMP_temperature;BMP_pressure;BME280_temperature;BME280_humidity;BME280_pressure;Samples;Min_cycle;Max_cycle;Signal;HPM_P1;HPM_P2
2021/06/24 00:01:34;;;;;;;7.30;5.77;;;;;;;17.94;100.00;99240.91;10252617;29;20203;-81
2021/06/24 00:06:53;;;;;;;7.17;5.87;;;;;;;18.01;100.00;99249.81;10226656;29;20215;-80
2021/06/24 00:12:12;;;;;;;12.93;6.80;;;;;;;18.01;100.00;99237.91;10241555;29;20187;-83
2021/06/24 00:17:31;;;;;;;9.43;7.10;;;;;;;17.99;100.00;99240.34;10261081;29;20557;-82
2021/06/24 00:22:50;;;;;;;8.13;5.83;;;;;;;18.04;100.00;99243.38;10242288;29;20183;-81
2021/06/24 00:28:14;;;;;;;12.30;7.63;;;;;;;17.99;100.00;99246.69;10224440;29;20635;-81
2021/06/24 00:33:34;;;;;;;9.53;6.80;;;;;;;18.00;100.00;99251.03;10251554;28;20194;-82
2021/06/24 00:38:52;;;;;;;11.50;7.23;;;;;;;17.97;100.00;99262.28;10264052;29;20178;-81
2021/06/24 00:44:11;;;;;;;7.77;6.37;;;;;;;17.92;100.00;99262.84;10228216;29;20207;-80
2021/06/24 00:49:30;;;;;;;11.30;7.37;;;;;;;17.97;100.00;99259.50;10218206;29;20282;-81
2021/06/24 00:54:49;;;;;;;9.70;6.70;;;;;;;17.97;100.00;99253.94;10256996;29;20264;-81
2021/06/24 01:00:09;;;;;;;8.60;6.70;;;;;;;18.03;100.00;99254.94;10257749;29;20637;-82
2021/06/24 01:05:29;;;;;;;8.63;6.50;;;;;;;18.04;100.00;99256.50;10230015;29;20215;-82
2021/06/24 01:10:50;;;;;;;9.33;7.90;;;;;;;18.07;100.00;99241.69;10220297;29;20175;-82
2021/06/24 01:16:09;;;;;;;12.33;7.53;;;;;;;18.07;100.00;99239.69;10217634;29;20175;-82
2021/06/24 01:21:28;;;;;;;9.07;7.10;;;;;;;18.09;100.00;99230.91;10259406;29;20183;-82
2021/06/24 01:26:47;;;;;;;16.80;8.00;;;;;;;17.99;100.00;99218.84;10259324;29;20203;-81
2021/06/24 01:32:06;;;;;;;10.70;7.50;;;;;;;17.93;100.00;99211.53;10259994;29;20223;-84
2021/06/24 01:37:25;;;;;;;7.53;6.23;;;;;;;17.97;100.00;99206.63;10221865;29;20258;-81
2021/06/24 01:42:44;;;;;;;12.30;8.33;;;;;;;18.02;100.00;99197.69;10253786;29;20194;-83
2021/06/24 01:48:03;;;;;;;9.20;6.73;;;;;;;17.95;100.00;99190.38;10258885;28;20681;-84
2021/06/24 01:53:23;;;;;;;8.73;7.37;;;;;;;17.92;100.00;99171.75;10239130;29;20183;-82
2021/06/24 01:58:42;;;;;;;10.87;7.00;;;;;;;17.97;100.00;99171.19;10225516;29;20180;-81
2021/06/24 02:04:01;;;;;;;13.03;6.87;;;;;;;17.95;100.00;99168.09;10223811;29;20670;-82
2021/06/24 02:09:20;;;;;;;10.00;7.13;;;;;;;17.90;100.00;99165.09;10222544;29;20270;-81
2021/06/24 02:14:39;;;;;;;8.90;7.13;;;;;;;17.86;100.00;99167.97;10256726;29;20645;-82
2021/06/24 02:19:58;;;;;;;10.90;8.13;;;;;;;17.86;100.00;99172.75;10264054;29;20528;-81
2021/06/24 02:25:18;;;;;;;11.50;8.30;;;;;;;17.89;100.00;99183.00;10268504;29;20198;-81
2021/06/24 02:30:37;;;;;;;12.80;8.47;;;;;;;17.85;100.00;99183.13;10267319;29;20226;-82
2021/06/24 02:35:58;;;;;;;11.07;7.20;;;;;;;17.83;100.00;99193.16;10243031;29;20179;-81
2021/06/24 02:41:17;;;;;;;22.23;7.63;;;;;;;17.89;100.00;99197.69;10233276;29;20176;-81
2021/06/24 02:46:36;;;;;;;10.73;7.70;;;;;;;17.87;100.00;99197.38;10223792;29;20600;-81
2021/06/24 02:51:55;;;;;;;8.53;7.40;;;;;;;17.96;100.00;99202.25;10222152;29;20171;-81
2021/06/24 02:57:14;;;;;;;10.10;7.50;;;;;;;17.91;100.00;99208.41;10226964;29;20582;-81
2021/06/24 03:02:33;;;;;;;9.73;7.73;;;;;;;17.88;100.00;99206.50;10263544;29;20210;-81
2021/06/24 03:07:52;;;;;;;8.20;7.40;;;;;;;17.84;100.00;99201.03;10261717;29;20183;-81
2021/06/24 03:13:11;;;;;;;11.70;8.27;;;;;;;17.87;100.00;99199.38;10262963;29;20262;-81
2021/06/24 03:18:30;;;;;;;15.03;9.77;;;;;;;17.80;100.00;99199.59;10262006;29;20187;-81
2021/06/24 03:23:49;;;;;;;12.07;8.23;;;;;;;17.73;100.00;99195.00;10258449;29;20207;-81
2021/06/24 03:29:09;;;;;;;14.47;9.30;;;;;;;17.74;100.00;99181.88;10223031;29;20235;-83
2021/06/24 03:34:28;;;;;;;10.83;7.80;;;;;;;17.73;100.00;99181.09;10221342;29;20180;-81
2021/06/24 03:39:48;;;;;;;15.67;8.30;;;;;;;17.73;100.00;99174.75;10222787;29;20184;-83
2021/06/24 03:45:08;;;;;;;12.07;8.83;;;;;;;17.68;100.00;99181.66;10221716;29;20211;-83
2021/06/24 03:50:27;;;;;;;12.37;7.97;;;;;;;17.66;100.00;99194.47;10220659;29;20183;-84
2021/06/24 03:55:47;;;;;;;10.87;7.90;;;;;;;17.69;100.00;99193.56;10253114;29;20187;-83
2021/06/24 04:01:06;;;;;;;11.43;7.00;;;;;;;17.76;100.00;99193.38;10258668;29;20641;-83
2021/06/24 04:06:25;;;;;;;14.30;8.03;;;;;;;17.84;100.00;99189.91;10260336;29;20210;-84
2021/06/24 04:11:43;;;;;;;14.33;8.23;;;;;;;17.84;100.00;99184.34;10260779;28;20179;-82
2021/06/24 04:17:02;;;;;;;19.83;7.60;;;;;;;17.87;100.00;99200.16;10259323;29;20178;-84
2021/06/24 04:22:22;;;;;;;12.93;8.07;;;;;;;17.90;100.00;99204.81;10256117;29;20203;-84
2021/06/24 04:27:42;;;;;;;10.93;7.70;;;;;;;17.96;100.00;99205.84;10221189;29;20227;-81
2021/06/24 04:33:01;;;;;;;11.00;8.20;;;;;;;18.04;100.00;99200.81;10221163;29;20261;-85
2021/06/24 04:38:20;;;;;;;10.33;7.73;;;;;;;18.10;100.00;99207.38;10221146;29;20183;-83
2021/06/24 04:43:39;;;;;;;8.50;7.57;;;;;;;18.27;100.00;99211.63;10221393;29;20219;-84
2021/06/24 04:48:58;;;;;;;10.57;7.20;;;;;;;18.22;100.00;99223.34;10240488;29;20183;-81
2021/06/24 04:54:17;;;;;;;12.80;7.97;;;;;;;18.18;100.00;99212.28;10260531;29;20186;-81
2021/06/24 04:59:37;;;;;;;13.13;9.50;;;;;;;18.10;100.00;99224.09;10262483;29;20178;-83
2021/06/24 05:04:56;;;;;;;9.00;7.97;;;;;;;18.07;100.00;99217.41;10262041;29;20243;-82
2021/06/24 05:10:17;;;;;;;10.40;8.20;;;;;;;18.02;100.00;99222.75;10269427;29;20186;-84
2021/06/24 05:15:36;;;;;;;8.47;6.77;;;;;;;18.05;100.00;99219.09;10232850;29;20188;-81
2021/06/24 05:20:59;;;;;;;10.40;7.30;;;;;;;18.05;100.00;99219.09;10239556;28;20650;-80
2021/06/24 05:26:18;;;;;;;10.53;7.43;;;;;;;17.97;100.00;99214.97;10227256;29;20675;-80
2021/06/24 05:31:39;;;;;;;11.80;8.07;;;;;;;18.00;100.00;99214.09;10227264;29;20226;-80
2021/06/24 05:37:00;;;;;;;11.77;8.53;;;;;;;18.16;100.00;99216.75;10225900;29;20188;-80
2021/06/24 05:42:19;;;;;;;11.60;7.73;;;;;;;18.08;100.00;99212.63;10231061;29;20263;-81
2021/06/24 05:47:38;;;;;;;9.13;7.10;;;;;;;18.00;100.00;99216.88;10226073;29;20218;-80
2021/06/24 05:52:57;;;;;;;10.80;7.80;;;;;;;17.97;100.00;99217.75;10226691;29;20639;-81
2021/06/24 05:58:22;;;;;;;10.43;8.60;;;;;;;17.95;100.00;99214.63;10228666;29;20179;-81
2021/06/24 06:03:41;;;;;;;11.40;8.30;;;;;;;17.95;100.00;99214.63;10229221;29;20199;-82
2021/06/24 06:09:00;;;;;;;13.17;8.63;;;;;;;18.10;100.00;99210.16;10231380;29;20183;-82
2021/06/24 06:14:19;;;;;;;10.80;8.80;;;;;;;18.11;100.00;99206.94;10229714;29;20179;-80
2021/06/24 06:19:38;;;;;;;12.70;9.27;;;;;;;18.16;100.00;99205.63;10222381;29;20187;-81
2021/06/24 06:24:57;;;;;;;13.40;8.43;;;;;;;18.23;100.00;99205.41;10217526;29;20215;-82
2021/06/24 06:30:17;;;;;;;12.10;8.07;;;;;;;18.30;100.00;99202.38;10248860;28;20227;-81
2021/06/24 06:35:37;;;;;;;14.03;8.37;;;;;;;18.29;100.00;99193.28;10259090;29;20179;-80
2021/06/24 06:40:57;;;;;;;15.77;10.43;;;;;;;18.40;100.00;99204.06;10257956;29;20686;-81
2021/06/24 06:46:16;;;;;;;11.97;9.87;;;;;;;18.37;100.00;99199.38;10254076;29;20242;-82
2021/06/24 06:51:35;;;;;;;12.37;8.13;;;;;;;18.49;100.00;99185.41;10255082;29;20270;-82
2021/06/24 06:56:54;;;;;;;17.80;9.17;;;;;;;18.62;100.00;99188.94;10254110;29;20257;-82
2021/06/24 07:02:12;;;;;;;13.80;9.53;;;;;;;18.76;100.00;99197.59;10237516;29;20207;-82
2021/06/24 07:07:31;;;;;;;18.53;10.30;;;;;;;18.81;100.00;99187.88;10212626;29;20216;-82
2021/06/24 07:12:50;;;;;;;19.10;9.90;;;;;;;18.92;100.00;99186.28;10213150;29;20187;-82
2021/06/24 07:18:12;;;;;;;16.50;10.00;;;;;;;18.88;100.00;99184.84;10211842;29;20184;-82
2021/06/24 07:23:31;;;;;;;16.20;9.30;;;;;;;18.97;100.00;99194.09;10212341;29;20269;-82
2021/06/24 07:28:50;;;;;;;13.23;9.33;;;;;;;19.17;100.00;99179.84;10220312;29;20234;-82
2021/06/24 07:34:09;;;;;;;15.77;9.50;;;;;;;19.20;100.00;99193.66;10238347;29;20549;-83
2021/06/24 07:39:28;;;;;;;17.97;11.03;;;;;;;19.21;100.00;99198.03;10252175;29;20179;-83
2021/06/24 07:44:48;;;;;;;14.47;10.43;;;;;;;19.36;100.00;99199.06;10255391;28;20206;-82
2021/06/24 07:50:07;;;;;;;15.37;9.27;;;;;;;19.26;100.00;99203.00;10257870;29;20246;-82
2021/06/24 07:55:33;;;;;;;11.90;9.30;;;;;;;19.20;100.00;99212.41;10258079;29;20186;-82
2021/06/24 08:00:52;;;;;;;14.47;9.30;;;;;;;19.05;100.00;99202.97;10229026;29;20606;-82
2021/06/24 08:06:11;;;;;;;13.97;8.67;;;;;;;18.95;100.00;99196.53;10217699;29;20227;-83
2021/06/24 08:11:30;;;;;;;13.60;8.40;;;;;;;18.87;100.00;99200.00;10218735;29;20179;-83
2021/06/24 08:16:50;;;;;;;12.97;7.73;;;;;;;18.76;100.00;99192.03;10217260;29;20623;-82
2021/06/24 08:22:09;;;;;;;11.40;8.33;;;;;;;18.80;100.00;99187.13;10217458;29;20252;-82
2021/06/24 08:27:28;;;;;;;21.17;8.47;;;;;;;18.93;100.00;99193.41;10217544;29;20199;-82
2021/06/24 08:32:47;;;;;;;9.43;7.83;;;;;;;18.99;100.00;99202.75;10255730;29;20219;-82
2021/06/24 08:38:07;;;;;;;13.43;8.83;;;;;;;18.87;100.00;99206.38;10255949;29;20178;-82
2021/06/24 08:43:27;;;;;;;13.23;8.90;;;;;;;18.84;100.00;99209.28;10256168;29;20214;-81
2021/06/24 08:48:47;;;;;;;11.07;7.70;;;;;;;18.97;100.00;99204.44;10255011;29;20183;-83
2021/06/24 08:54:06;;;;;;;11.57;7.83;;;;;;;19.00;100.00;99209.13;10256621;28;20175;-81
2021/06/24 08:59:24;;;;;;;25.23;9.47;;;;;;;19.07;100.00;99209.63;10239788;29;20646;-81
2021/06/24 09:04:46;;;;;;;13.80;9.80;;;;;;;18.94;100.00;99216.50;10214222;29;20207;-81
2021/06/24 09:10:06;;;;;;;15.40;9.70;;;;;;;18.87;100.00;99223.09;10216554;29;20204;-81
2021/06/24 09:15:34;;;;;;;19.60;9.13;;;;;;;18.86;100.00;99218.75;10216155;29;20179;-82
2021/06/24 09:20:53;;;;;;;14.20;8.77;;;;;;;18.93;100.00;99232.44;10215983;29;20188;-82
2021/06/24 09:26:14;;;;;;;15.00;10.03;;;;;;;18.90;100.00;99233.34;10215459;29;20219;-83
2021/06/24 09:31:36;;;;;;;21.13;11.10;;;;;;;18.92;100.00;99232.91;10213047;29;20306;-82
2021/06/24 09:37:01;;;;;;;14.97;9.57;;;;;;;18.89;100.00;99236.59;10215358;29;20184;-82
2021/06/24 09:42:20;;;;;;;19.93;10.47;;;;;;;18.84;100.00;99231.59;10215149;29;20203;-81
2021/06/24 09:47:39;;;;;;;15.37;10.30;;;;;;;18.77;100.00;99226.25;10223699;29;20680;-82
2021/06/24 09:53:15;;;;;;;24.03;11.10;;;;;;;18.73;100.00;99231.97;10254595;29;20557;-82
2021/06/24 09:58:46;;;;;;;23.87;11.40;;;;;;;18.76;100.00;99241.44;10253357;29;20250;-82
2021/06/24 10:04:20;;;;;;;17.60;10.90;;;;;;;18.70;100.00;99241.22;10252888;29;20294;-82
2021/06/24 10:09:41;;;;;;;18.70;11.67;;;;;;;18.68;100.00;99248.47;10253402;28;20526;-82
2021/06/24 10:15:00;;;;;;;13.73;8.50;;;;;;;18.64;100.00;99256.16;10254615;29;20190;-81
2021/06/24 10:20:20;;;;;;;11.70;7.43;;;;;;;18.63;100.00;99252.59;10249285;29;20274;-81
2021/06/24 10:25:43;;;;;;;15.23;8.00;;;;;;;18.90;100.00;99254.88;10252326;29;20213;-81
2021/06/24 10:31:02;;;;;;;10.97;7.00;;;;;;;19.13;100.00;99255.28;10251653;29;20223;-80
2021/06/24 10:36:21;;;;;;;13.13;7.13;;;;;;;19.37;100.00;99256.41;10253267;29;20661;-81
2021/06/24 10:42:02;;;;;;;9.60;6.50;;;;;;;19.35;100.00;99259.63;10251602;29;20555;-81
2021/06/24 10:47:31;;;;;;;11.60;8.17;;;;;;;19.70;100.00;99263.16;10251186;29;20678;-81
2021/06/24 10:52:50;;;;;;;7.77;7.07;;;;;;;19.66;100.00;99254.13;10251828;29;20183;-81
2021/06/24 10:58:23;;;;;;;10.40;5.83;;;;;;;19.86;100.00;99249.75;10251920;29;20269;-81
2021/06/24 11:03:43;;;;;;;9.07;6.07;;;;;;;19.60;100.00;99253.91;10250619;29;20203;-81
2021/06/24 11:09:13;;;;;;;10.97;7.73;;;;;;;19.34;100.00;99257.31;10116998;29;20184;-81
2021/06/24 11:14:56;;;;;;;10.10;7.20;;;;;;;19.20;100.00;99254.22;10129343;29;20188;-81
2021/06/24 11:20:19;;;;;;;7.77;6.30;;;;;;;19.08;100.00;99250.22;10133396;29;20196;-81
2021/06/24 11:26:08;;;;;;;7.73;6.73;;;;;;;19.14;100.00;99253.25;10137440;29;20712;-82
2021/06/24 11:31:34;;;;;;;8.97;6.93;;;;;;;19.26;100.00;99250.41;10135808;29;20228;-82
2021/06/24 11:37:04;;;;;;;8.03;6.70;;;;;;;19.52;100.00;99246.28;10139637;29;20184;-82
2021/06/24 11:42:37;;;;;;;10.87;6.83;;;;;;;19.95;100.00;99249.81;10240549;29;20204;-82
2021/06/24 11:47:57;;;;;;;7.03;5.83;;;;;;;20.25;100.00;99235.84;10216950;29;20207;-82
2021/06/24 12:04:58;;;;;;;9.57;6.00;;;;;;;20.21;100.00;99245.59;10134511;29;20724;-82
2021/06/24 12:10:23;;;;;;;6.70;5.10;;;;;;;20.36;100.00;99238.22;10211804;29;20227;-82
2021/06/24 12:15:52;;;;;;;6.63;5.77;;;;;;;21.22;100.00;99246.94;10247423;29;20182;-82
2021/06/24 12:21:13;;;;;;;6.23;5.40;;;;;;;21.52;100.00;99241.19;10257129;29;20187;-82
2021/06/24 12:26:32;;;;;;;7.37;4.90;;;;;;;21.74;100.00;99248.16;10256589;29;20214;-82
2021/06/24 12:32:00;;;;;;;5.90;4.17;;;;;;;21.99;100.00;99241.41;10255385;28;21267;-83
2021/06/24 12:37:31;;;;;;;6.20;4.40;;;;;;;22.42;100.00;99244.53;10254509;29;20179;-81
2021/06/24 12:42:58;;;;;;;8.67;5.17;;;;;;;23.60;100.00;99235.56;10216581;29;20215;-83
2021/06/24 12:48:29;;;;;;;4.60;4.20;;;;;;;25.09;100.00;99212.16;10215120;29;20583;-83
2021/06/24 12:53:53;;;;;;;6.20;4.20;;;;;;;24.65;89.92;99212.78;10216360;29;20643;-83
2021/06/24 12:59:22;;;;;;;6.90;4.23;;;;;;;24.44;91.41;99209.16;10216435;29;20270;-83
2021/06/24 13:04:41;;;;;;;7.47;5.10;;;;;;;24.94;88.26;99199.38;10215558;29;20207;-83
2021/06/24 13:10:00;;;;;;;5.87;3.70;;;;;;;24.99;88.35;99179.75;10218152;29;20623;-81
2021/06/24 13:15:33;;;;;;;6.57;3.63;;;;;;;25.20;72.14;99175.66;10231193;29;20183;-82
2021/06/24 13:20:57;;;;;;;6.10;3.87;;;;;;;24.84;70.25;99188.75;10224746;29;20179;-81
2021/06/24 13:26:21;;;;;;;5.90;5.23;;;;;;;25.78;71.34;99185.75;10219060;29;20246;-81
2021/06/24 13:31:43;;;;;;;4.73;4.00;;;;;;;26.27;62.20;99183.31;10252932;29;20230;-81
2021/06/24 13:37:13;;;;;;;5.00;4.50;;;;;;;26.13;60.68;99182.19;10256415;29;20175;-81
2021/06/24 13:42:53;;;;;;;6.53;5.47;;;;;;;25.26;61.77;99182.13;10257429;28;20269;-82
2021/06/24 13:48:15;;;;;;;7.90;3.97;;;;;;;25.79;60.15;99184.47;10257494;29;20191;-83
2021/06/24 13:53:34;;;;;;;4.10;3.70;;;;;;;26.16;59.16;99177.63;10259571;29;20222;-83
2021/06/24 13:58:54;;;;;;;4.03;3.50;;;;;;;26.16;58.54;99167.09;10247586;29;20222;-81
2021/06/24 14:04:17;;;;;;;5.17;3.60;;;;;;;26.72;59.54;99161.31;10213512;29;20690;-80
2021/06/24 14:09:36;;;;;;;3.43;3.10;;;;;;;26.99;56.78;99171.19;10213479;29;20266;-84
2021/06/24 14:14:56;;;;;;;3.37;3.17;;;;;;;26.48;56.92;99179.13;10212586;29;20207;-84
2021/06/24 14:20:15;;;;;;;3.30;3.00;;;;;;;25.97;59.96;99176.44;10212992;29;20183;-83
2021/06/24 14:25:35;;;;;;;3.27;2.93;;;;;;;25.84;60.70;99170.44;10212914;29;20211;-83
2021/06/24 14:30:54;;;;;;;2.50;2.30;;;;;;;25.54;61.50;99155.00;10241502;29;20234;-84
2021/06/24 14:36:13;;;;;;;3.43;2.93;;;;;;;25.44;63.10;99164.91;10252601;29;20210;-84
2021/06/24 14:41:33;;;;;;;2.10;1.90;;;;;;;25.07;64.73;99157.56;10253327;29;20194;-84
2021/06/24 14:46:52;;;;;;;2.77;2.57;;;;;;;24.73;63.75;99158.44;10250590;29;20585;-82
2021/06/24 14:52:11;;;;;;;3.23;2.50;;;;;;;25.30;61.74;99168.59;10254577;28;20187;-82
2021/06/24 14:57:30;;;;;;;9.00;2.53;;;;;;;25.52;62.90;99182.94;10256121;29;20270;-83
2021/06/24 15:02:49;;;;;;;2.93;2.73;;;;;;;25.37;63.19;99190.69;10220375;29;20218;-82
2021/06/24 15:08:08;;;;;;;2.80;2.60;;;;;;;24.53;64.56;99205.47;10219593;29;20306;-82
2021/06/24 15:13:27;;;;;;;3.63;2.80;;;;;;;23.95;66.71;99199.94;10219880;29;20179;-82
2021/06/24 15:18:46;;;;;;;3.10;2.50;;;;;;;23.73;68.50;99199.56;10218189;29;20639;-82
2021/06/24 15:24:06;;;;;;;4.30;2.70;;;;;;;23.47;70.58;99195.75;10219601;29;20215;-82
2021/06/24 15:29:25;;;;;;;2.90;2.60;;;;;;;23.19;71.09;99171.22;10239655;29;20222;-83
2021/06/24 15:34:44;;;;;;;3.23;2.60;;;;;;;22.86;70.63;99175.34;10258340;29;20183;-83
2021/06/24 15:40:05;;;;;;;2.83;2.63;;;;;;;22.66;72.63;99175.97;10259280;29;20677;-83
2021/06/24 15:45:26;;;;;;;6.77;3.10;;;;;;;22.36;74.32;99165.13;10258886;29;20777;-82
2021/06/24 15:50:45;;;;;;;2.57;2.37;;;;;;;22.20;74.17;99162.69;10258024;29;20539;-83
2021/06/24 15:56:05;;;;;;;2.80;2.60;;;;;;;22.07;74.93;99164.94;10258314;29;20261;-82
2021/06/24 16:01:24;;;;;;;2.60;2.40;;;;;;;21.94;76.55;99153.16;10221853;29;20187;-82
2021/06/24 16:06:44;;;;;;;2.90;2.63;;;;;;;21.91;76.72;99142.91;10216295;29;20551;-82
2021/06/24 16:12:03;;;;;;;3.27;3.07;;;;;;;21.77;77.72;99137.19;10218349;29;20175;-82
2021/06/24 16:17:22;;;;;;;3.60;2.60;;;;;;;21.61;79.10;99142.41;10217734;29;20636;-82
2021/06/24 16:22:43;;;;;;;3.60;2.40;;;;;;;21.46;83.04;99152.69;10218527;29;20180;-82
2021/06/24 16:28:02;;;;;;;5.10;3.00;;;;;;;21.23;87.63;99158.94;10230037;29;20294;-83
2021/06/24 16:33:21;;;;;;;3.50;3.20;;;;;;;20.96;90.29;99156.16;10242002;29;20218;-82
2021/06/24 16:38:40;;;;;;;4.37;3.00;;;;;;;20.64;100.00;99128.78;10243569;29;20210;-83
2021/06/24 16:43:59;;;;;;;2.60;2.40;;;;;;;20.42;100.00;99096.63;10217688;29;20685;-83
2021/06/24 16:49:18;;;;;;;4.83;2.80;;;;;;;20.08;100.00;99063.38;10216492;29;20218;-83
2021/06/24 16:54:37;;;;;;;3.63;3.30;;;;;;;19.67;100.00;99046.34;10227760;29;20179;-84
2021/06/24 16:59:57;;;;;;;3.50;2.93;;;;;;;19.57;100.00;99045.53;10224616;29;20580;-83
2021/06/24 17:05:15;;;;;;;5.50;4.07;;;;;;;19.41;100.00;99026.25;10254664;29;20687;-83
2021/06/24 17:10:35;;;;;;;4.80;3.77;;;;;;;19.45;100.00;99034.47;10256059;29;20179;-83
2021/06/24 17:15:54;;;;;;;3.70;3.17;;;;;;;19.50;100.00;99034.66;10214712;29;20183;-83
2021/06/24 17:21:13;;;;;;;4.07;3.60;;;;;;;19.52;100.00;99068.44;10215992;29;20630;-83
2021/06/24 17:26:32;;;;;;;3.57;3.27;;;;;;;19.41;100.00;99073.69;10215584;29;20621;-83
2021/06/24 17:31:51;;;;;;;3.27;2.97;;;;;;;19.35;100.00;99074.72;10213863;29;20227;-83
2021/06/24 17:37:11;;;;;;;3.93;3.53;;;;;;;19.32;100.00;99064.47;10214658;29;20183;-83
2021/06/24 17:42:30;;;;;;;4.23;3.30;;;;;;;19.33;100.00;99043.72;10214208;29;20246;-83
2021/06/24 17:47:49;;;;;;;5.10;2.83;;;;;;;19.36;100.00;99059.56;10212338;29;20207;-84
2021/06/24 17:53:08;;;;;;;3.53;3.23;;;;;;;19.45;100.00;99062.38;10215076;29;20642;-84
2021/06/24 17:58:27;;;;;;;4.23;3.60;;;;;;;19.42;100.00;99069.66;10215026;29;20191;-84
2021/06/24 18:03:46;;;;;;;3.40;3.10;;;;;;;19.37;100.00;99077.84;10212146;29;20658;-84
2021/06/24 18:09:05;;;;;;;3.87;3.40;;;;;;;19.46;100.00;99077.91;10213686;29;20183;-84
2021/06/24 18:14:25;;;;;;;4.50;3.40;;;;;;;19.49;100.00;99091.72;10235841;29;20191;-84
2021/06/24 18:19:51;;;;;;;3.07;2.70;;;;;;;19.71;100.00;99108.38;10251726;29;20179;-84
2021/06/24 18:25:13;;;;;;;7.17;3.70;;;;;;;19.61;100.00;99117.97;10253498;29;20665;-84
2021/06/24 18:30:32;;;;;;;4.73;3.27;;;;;;;19.52;100.00;99117.91;10252713;29;20222;-84
2021/06/24 18:35:52;;;;;;;4.23;3.10;;;;;;;19.31;100.00;99116.72;10252455;29;20175;-84
2021/06/24 18:41:14;;;;;;;3.97;3.43;;;;;;;19.11;100.00;99121.09;10252165;29;20356;-84
2021/06/24 18:46:34;;;;;;;4.60;4.10;;;;;;;19.08;100.00;99123.97;10212058;29;20297;-84
2021/06/24 18:51:54;;;;;;;3.77;3.33;;;;;;;19.04;100.00;99121.31;10227827;29;20191;-84
2021/06/24 18:57:12;;;;;;;6.13;4.33;;;;;;;19.03;100.00;99119.75;10253110;29;20171;-84
2021/06/24 19:02:31;;;;;;;6.93;4.40;;;;;;;18.79;100.00;99115.06;10251949;29;20182;-84
2021/06/24 19:07:50;;;;;;;7.50;3.97;;;;;;;18.55;100.00;99122.31;10251404;29;20680;-84
2021/06/24 19:13:10;;;;;;;5.73;4.37;;;;;;;18.40;100.00;99134.41;10250292;29;20178;-84
2021/06/24 19:18:30;;;;;;;5.00;3.93;;;;;;;18.37;100.00;99136.09;10212069;29;20658;-84
2021/06/24 19:23:48;;;;;;;10.63;3.50;;;;;;;18.38;100.00;99143.19;10212989;29;20203;-84
2021/06/24 19:29:07;;;;;;;5.80;4.20;;;;;;;18.30;100.00;99149.47;10212689;29;20231;-84
2021/06/24 19:34:27;;;;;;;19.83;5.90;;;;;;;18.24;100.00;99152.03;10210685;29;20646;-83
2021/06/24 19:39:47;;;;;;;4.23;3.83;;;;;;;18.25;100.00;99161.19;10214904;29;20199;-84
2021/06/24 19:45:09;;;;;;;9.30;5.20;;;;;;;18.17;100.00;99157.06;10246494;29;20297;-84
2021/06/24 19:50:29;;;;;;;8.80;5.30;;;;;;;18.16;100.00;99163.84;10258185;29;20622;-84
2021/06/24 19:55:49;;;;;;;4.77;4.37;;;;;;;18.22;100.00;99164.88;10259094;29;20182;-84
2021/06/24 20:01:09;;;;;;;4.20;3.90;;;;;;;18.08;100.00;99188.34;10257879;29;20179;-84
2021/06/24 20:06:28;;;;;;;7.37;4.50;;;;;;;17.99;100.00;99184.69;10257006;29;20665;-84
2021/06/24 20:11:47;;;;;;;4.03;3.43;;;;;;;18.15;100.00;99192.91;10254495;29;20183;-84
2021/06/24 20:17:06;;;;;;;4.67;3.70;;;;;;;18.09;100.00;99203.81;10217570;29;20172;-84
2021/06/24 20:22:25;;;;;;;4.83;4.13;;;;;;;18.02;100.00;99194.91;10217617;29;20513;-84
2021/06/24 20:27:45;;;;;;;5.50;4.70;;;;;;;18.02;100.00;99183.78;10218006;29;20203;-84
2021/06/24 20:33:08;;;;;;;4.43;3.97;;;;;;;18.05;100.00;99178.09;10216517;29;20228;-84
2021/06/24 20:38:27;;;;;;;5.53;4.57;;;;;;;17.96;100.00;99180.00;10217091;29;20203;-85
2021/06/24 20:43:46;;;;;;;5.73;4.37;;;;;;;17.91;100.00;99175.75;10236795;29;20661;-84
2021/06/24 20:49:05;;;;;;;11.30;5.07;;;;;;;17.77;100.00;99167.88;10254981;28;20170;-84
2021/06/24 20:54:24;;;;;;;5.83;4.40;;;;;;;17.65;100.00;99162.28;10256443;29;20183;-84
2021/06/24 20:59:43;;;;;;;6.77;4.93;;;;;;;17.68;100.00;99170.53;10256137;29;20182;-84
2021/06/24 21:05:03;;;;;;;4.93;3.57;;;;;;;17.51;100.00;99165.50;10254369;29;20206;-84
2021/06/24 21:10:22;;;;;;;9.23;4.07;;;;;;;17.44;100.00;99165.72;10256573;29;20183;-84
2021/06/24 21:15:41;;;;;;;8.40;4.57;;;;;;;17.48;100.00;99166.38;10218409;29;20187;-84
2021/06/24 21:20:59;;;;;;;8.63;4.50;;;;;;;17.34;100.00;99177.94;10215621;29;20187;-84
2021/06/24 21:26:18;;;;;;;4.30;3.70;;;;;;;17.35;100.00;99185.06;10214926;29;20211;-84
2021/06/24 21:31:37;;;;;;;4.87;3.70;;;;;;;17.27;100.00;99185.66;10214003;29;20223;-83
2021/06/24 21:36:56;;;;;;;5.10;3.93;;;;;;;17.30;100.00;99191.16;10214637;29;20187;-83
2021/06/24 21:42:15;;;;;;;29.90;5.10;;;;;;;17.21;100.00;99179.88;10224316;29;20179;-83
2021/06/24 21:47:35;;;;;;;4.03;3.63;;;;;;;17.24;100.00;99179.00;10252615;29;20217;-83
2021/06/24 21:52:54;;;;;;;7.50;4.27;;;;;;;17.27;100.00;99185.66;10255432;29;20654;-83
2021/06/24 21:58:14;;;;;;;6.20;5.10;;;;;;;17.30;100.00;99171.69;10254161;29;20637;-84
2021/06/24 22:03:33;;;;;;;4.83;4.33;;;;;;;17.32;100.00;99174.81;10252741;28;20179;-83
2021/06/24 22:08:54;;;;;;;3.77;3.30;;;;;;;17.21;100.00;99174.31;10254476;29;20182;-83
2021/06/24 22:14:13;;;;;;;3.50;3.03;;;;;;;17.20;100.00;99186.66;10227378;29;20215;-83
2021/06/24 22:19:32;;;;;;;5.27;4.73;;;;;;;17.10;100.00;99189.72;10213521;29;20179;-83
2021/06/24 22:24:51;;;;;;;4.17;3.87;;;;;;;17.15;100.00;99197.56;10213330;29;20210;-83
2021/06/24 22:30:11;;;;;;;8.10;4.73;;;;;;;17.25;100.00;99197.25;10212938;29;20314;-83
2021/06/24 22:35:32;;;;;;;6.47;3.80;;;;;;;17.27;100.00;99207.91;10212114;29;20179;-83
2021/06/24 22:40:50;;;;;;;5.40;4.77;;;;;;;17.28;100.00;99212.28;10214180;29;20195;-83
2021/06/24 22:46:10;;;;;;;5.37;4.40;;;;;;;17.40;100.00;99219.91;10230649;29;20206;-83
2021/06/24 22:51:29;;;;;;;7.43;4.93;;;;;;;17.23;100.00;99221.91;10253358;29;20633;-83
2021/06/24 22:56:49;;;;;;;4.40;4.00;;;;;;;17.18;100.00;99214.13;10252318;29;20182;-83
2021/06/24 23:02:08;;;;;;;4.57;3.27;;;;;;;17.21;100.00;99213.22;10251105;29;20183;-83
2021/06/24 23:07:27;;;;;;;9.33;3.97;;;;;;;17.19;100.00;99210.13;10256648;29;20214;-84
2021/06/24 23:12:46;;;;;;;24.17;4.00;;;;;;;17.08;100.00;99209.63;10235809;29;20578;-84
2021/06/24 23:18:05;;;;;;;5.37;3.77;;;;;;;17.07;100.00;99205.28;10218883;29;20195;-84
2021/06/24 23:23:24;;;;;;;6.67;3.27;;;;;;;17.10;100.00;99201.66;10219637;29;20187;-84
2021/06/24 23:28:43;;;;;;;3.80;3.13;;;;;;;16.99;100.00;99220.59;10220739;29;20183;-84
2021/06/24 23:34:03;;;;;;;4.37;3.47;;;;;;;17.01;100.00;99218.19;10219456;29;20211;-84
2021/06/24 23:39:22;;;;;;;4.53;3.40;;;;;;;16.93;100.00;99219.59;10219078;29;20207;-84
2021/06/24 23:44:42;;;;;;;4.67;3.40;;;;;;;16.85;100.00;99207.09;10233539;29;20211;-84
2021/06/24 23:50:03;;;;;;;4.37;3.97;;;;;;;16.72;100.00;99207.50;10218608;29;20184;-83
2021/06/24 23:55:22;;;;;;;4.47;4.07;;;;;;;16.73;100.00;99209.81;10219796;29;20254;-84
